sensor_id;sensor_type;location;lat;lon;timestamp;pressure;altitude;pressure_sealevel;temperature;humidity
71764;BME280;59602;52.142;5.408;2024-03-17T00:01:36;102465.38;;;5.80;97.79
71764;BME280;59602;52.142;5.408;2024-03-17T00:04:02;102463.00;;;5.79;97.83
71764;BME280;59602;52.142;5.408;2024-03-17T00:06:29;102467.59;;;5.78;98.03
71764;BME280;59602;52.142;5.408;2024-03-17T00:08:54;102461.09;;;5.79;97.89
71764;BME280;59602;52.142;5.408;2024-03-17T00:11:22;102458.38;;;5.79;98.73
71764;BME280;59602;52.142;5.408;2024-03-17T00:13:48;102462.69;;;5.80;98.43
71764;BME280;59602;52.142;5.408;2024-03-17T00:16:14;102457.28;;;5.80;98.30
71764;BME280;59602;52.142;5.408;2024-03-17T00:18:44;102456.81;;;5.78;98.63
71764;BME280;59602;52.142;5.408;2024-03-17T00:21:12;102441.69;;;5.77;98.10
71764;BME280;59602;52.142;5.408;2024-03-17T00:23:39;102448.69;;;5.78;98.40
71764;BME280;59602;52.142;5.408;2024-03-17T00:26:05;102439.19;;;5.81;98.75
71764;BME280;59602;52.142;5.408;2024-03-17T00:28:30;102437.59;;;5.80;98.48
71764;BME280;59602;52.142;5.408;2024-03-17T00:30:56;102447.59;;;5.79;98.03
71764;BME280;59602;52.142;5.408;2024-03-17T00:33:22;102446.00;;;5.78;98.45
71764;BME280;59602;52.142;5.408;2024-03-17T00:35:48;102442.31;;;5.74;98.30
71764;BME280;59602;52.142;5.408;2024-03-17T00:38:13;102444.53;;;5.72;98.30
71764;BME280;59602;52.142;5.408;2024-03-17T00:40:39;102428.81;;;5.74;98.57
71764;BME280;59602;52.142;5.408;2024-03-17T00:43:22;102430.09;;;5.77;99.58
71764;BME280;59602;52.142;5.408;2024-03-17T00:45:52;102425.50;;;5.77;98.90
71764;BME280;59602;52.142;5.408;2024-03-17T00:48:17;102425.50;;;5.77;99.57
71764;BME280;59602;52.142;5.408;2024-03-17T00:50:44;102423.28;;;5.79;99.30
71764;BME280;59602;52.142;5.408;2024-03-17T00:53:13;102421.38;;;5.80;98.79
71764;BME280;59602;52.142;5.408;2024-03-17T00:55:39;102424.91;;;5.80;99.39
71764;BME280;59602;52.142;5.408;2024-03-17T00:58:09;102425.69;;;5.81;99.19
71764;BME280;59602;52.142;5.408;2024-03-17T01:00:38;102422.22;;;5.80;99.80
71764;BME280;59602;52.142;5.408;2024-03-17T01:03:04;102424.91;;;5.80;100.00
71764;BME280;59602;52.142;5.408;2024-03-17T01:05:30;102414.41;;;5.79;100.00
71764;BME280;59602;52.142;5.408;2024-03-17T01:07:56;102418.69;;;5.80;100.00
71764;BME280;59602;52.142;5.408;2024-03-17T01:10:22;102416.63;;;5.77;100.00
71764;BME280;59602;52.142;5.408;2024-03-17T01:12:48;102415.50;;;5.78;100.00
71764;BME280;59602;52.142;5.408;2024-03-17T01:15:14;102417.91;;;5.79;100.00
71764;BME280;59602;52.142;5.408;2024-03-17T01:17:39;102409.31;;;5.77;100.00
71764;BME280;59602;52.142;5.408;2024-03-17T01:20:07;102407.91;;;5.80;100.00
71764;BME280;59602;52.142;5.408;2024-03-17T01:22:33;102410.91;;;5.78;100.00
71764;BME280;59602;52.142;5.408;2024-03-17T01:24:59;102410.91;;;5.78;100.00
71764;BME280;59602;52.142;5.408;2024-03-17T01:27:28;102403.91;;;5.77;100.00
71764;BME280;59602;52.142;5.408;2024-03-17T01:29:54;102410.91;;;5.78;100.00
71764;BME280;59602;52.142;5.408;2024-03-17T01:32:20;102405.19;;;5.80;100.00
71764;BME280;59602;52.142;5.408;2024-03-17T01:34:45;102397.59;;;5.82;100.00
71764;BME280;59602;52.142;5.408;2024-03-17T01:37:11;102391.59;;;5.85;100.00
71764;BME280;59602;52.142;5.408;2024-03-17T01:39:37;102393.16;;;5.86;100.00
71764;BME280;59602;52.142;5.408;2024-03-17T01:42:03;102380.78;;;5.85;100.00
71764;BME280;59602;52.142;5.408;2024-03-17T01:44:28;102378.41;;;5.83;100.00
71764;BME280;59602;52.142;5.408;2024-03-17T01:46:56;102385.38;;;5.85;100.00
71764;BME280;59602;52.142;5.408;2024-03-17T01:49:24;102377.28;;;5.85;100.00
71764;BME280;59602;52.142;5.408;2024-03-17T01:51:51;102371.09;;;5.84;100.00
71764;BME280;59602;52.142;5.408;2024-03-17T01:54:18;102372.69;;;5.85;100.00
71764;BME280;59602;52.142;5.408;2024-03-17T01:56:44;102373.16;;;5.87;100.00
71764;BME280;59602;52.142;5.408;2024-03-17T01:59:10;102374.75;;;5.88;100.00
71764;BME280;59602;52.142;5.408;2024-03-17T02:01:37;102363.34;;;5.91;100.00
71764;BME280;59602;52.142;5.408;2024-03-17T02:04:04;102364.47;;;5.90;100.00
71764;BME280;59602;52.142;5.408;2024-03-17T02:06:30;102371.44;;;5.91;100.00
71764;BME280;59602;52.142;5.408;2024-03-17T02:08:56;102369.56;;;5.92;100.00
71764;BME280;59602;52.142;5.408;2024-03-17T02:13:52;102369.44;;;5.97;100.00
71764;BME280;59602;52.142;5.408;2024-03-17T02:16:18;102363.25;;;5.96;100.00
71764;BME280;59602;52.142;5.408;2024-03-17T02:18:45;102365.97;;;5.96;100.00
71764;BME280;59602;52.142;5.408;2024-03-17T02:21:12;102363.25;;;5.96;100.00
71764;BME280;59602;52.142;5.408;2024-03-17T02:23:38;102359.44;;;5.97;100.00
71764;BME280;59602;52.142;5.408;2024-03-17T02:26:04;102359.94;;;5.99;100.00
71764;BME280;59602;52.142;5.408;2024-03-17T02:28:41;102357.91;;;6.05;100.00
71764;BME280;59602;52.142;5.408;2024-03-17T02:31:09;102354.09;;;6.06;100.00
71764;BME280;59602;52.142;5.408;2024-03-17T02:33:37;102351.56;;;6.10;100.00
71764;BME280;59602;52.142;5.408;2024-03-17T02:36:05;102351.25;;;6.11;100.00
71764;BME280;59602;52.142;5.408;2024-03-17T02:38:34;102348.25;;;6.13;100.00
71764;BME280;59602;52.142;5.408;2024-03-17T02:41:18;102340.31;;;6.16;100.00
71764;BME280;59602;52.142;5.408;2024-03-17T02:43:44;102337.00;;;6.19;100.00
71764;BME280;59602;52.142;5.408;2024-03-17T02:46:12;102335.88;;;6.20;100.00
71764;BME280;59602;52.142;5.408;2024-03-17T02:48:40;102336.06;;;6.24;100.00
71764;BME280;59602;52.142;5.408;2024-03-17T02:51:13;102334.47;;;6.32;100.00
71764;BME280;59602;52.142;5.408;2024-03-17T02:53:41;102339.28;;;6.35;100.00
71764;BME280;59602;52.142;5.408;2024-03-17T02:56:08;102338.97;;;6.36;100.00
71764;BME280;59602;52.142;5.408;2024-03-17T02:58:37;102338.97;;;6.36;100.00
71764;BME280;59602;52.142;5.408;2024-03-17T03:01:05;102340.25;;;6.39;100.00
71764;BME280;59602;52.142;5.408;2024-03-17T03:03:33;102331.31;;;6.38;100.00
71764;BME280;59602;52.142;5.408;2024-03-17T03:05:59;102331.81;;;6.40;100.00
71764;BME280;59602;52.142;5.408;2024-03-17T03:08:26;102330.22;;;6.39;100.00
71764;BME280;59602;52.142;5.408;2024-03-17T03:10:52;102329.91;;;6.41;100.00
71764;BME280;59602;52.142;5.408;2024-03-17T03:13:18;102333.91;;;6.43;100.00
71764;BME280;59602;52.142;5.408;2024-03-17T03:15:46;102331.69;;;6.46;100.00
71764;BME280;59602;52.142;5.408;2024-03-17T03:18:13;102332.16;;;6.48;100.00
71764;BME280;59602;52.142;5.408;2024-03-17T03:20:39;102329.59;;;6.51;100.00
71764;BME280;59602;52.142;5.408;2024-03-17T03:23:05;102323.13;;;6.52;100.00
71764;BME280;59602;52.142;5.408;2024-03-17T03:25:31;102328.34;;;6.57;100.00
71764;BME280;59602;52.142;5.408;2024-03-17T03:27:57;102325.34;;;6.59;100.00
71764;BME280;59602;52.142;5.408;2024-03-17T03:30:24;102323.91;;;6.61;100.00
71764;BME280;59602;52.142;5.408;2024-03-17T03:32:50;102326.28;;;6.63;100.00
71764;BME280;59602;52.142;5.408;2024-03-17T03:35:16;102333.00;;;6.65;100.00
71764;BME280;59602;52.142;5.408;2024-03-17T03:37:44;102338.53;;;6.69;100.00
71764;BME280;59602;52.142;5.408;2024-03-17T03:40:11;102332.03;;;6.70;100.00
71764;BME280;59602;52.142;5.408;2024-03-17T03:42:42;102324.41;;;6.72;100.00
71764;BME280;59602;52.142;5.408;2024-03-17T03:45:10;102312.78;;;6.72;100.00
71764;BME280;59602;52.142;5.408;2024-03-17T03:47:39;102320.28;;;6.75;100.00
71764;BME280;59602;52.142;5.408;2024-03-17T03:50:08;102316.16;;;6.77;100.00
71764;BME280;59602;52.142;5.408;2024-03-17T03:52:36;102310.44;;;6.79;100.00
71764;BME280;59602;52.142;5.408;2024-03-17T03:55:06;102299.75;;;6.82;100.00
71764;BME280;59602;52.142;5.408;2024-03-17T03:57:33;102289.44;;;6.84;100.00
71764;BME280;59602;52.142;5.408;2024-03-17T04:00:00;102292.13;;;6.84;100.00
71764;BME280;59602;52.142;5.408;2024-03-17T04:02:26;102288.78;;;6.88;100.00
71764;BME280;59602;52.142;5.408;2024-03-17T04:04:57;102290.88;;;6.91;100.00
71764;BME280;59602;52.142;5.408;2024-03-17T04:07:23;102281.63;;;6.92;100.00
71764;BME280;59602;52.142;5.408;2024-03-17T04:09:49;102282.13;;;6.94;100.00
71764;BME280;59602;52.142;5.408;2024-03-17T04:12:15;102272.44;;;6.93;100.00
71764;BME280;59602;52.142;5.408;2024-03-17T04:14:41;102273.22;;;6.93;100.00
71764;BME280;59602;52.142;5.408;2024-03-17T04:17:07;102263.97;;;6.94;100.00
71764;BME280;59602;52.142;5.408;2024-03-17T04:19:33;102260.16;;;6.95;100.00
71764;BME280;59602;52.142;5.408;2024-03-17T04:21:58;102264.78;;;6.95;100.00
71764;BME280;59602;52.142;5.408;2024-03-17T04:24:24;102265.88;;;6.94;100.00
71764;BME280;59602;52.142;5.408;2024-03-17T04:26:50;102274.66;;;6.91;100.00
71764;BME280;59602;52.142;5.408;2024-03-17T04:29:16;102276.22;;;6.92;100.00
71764;BME280;59602;52.142;5.408;2024-03-17T04:31:41;102261.91;;;6.91;100.00
71764;BME280;59602;52.142;5.408;2024-03-17T04:34:07;102253.81;;;6.91;100.00
71764;BME280;59602;52.142;5.408;2024-03-17T04:36:33;102254.94;;;6.90;100.00
71764;BME280;59602;52.142;5.408;2024-03-17T04:38:59;102248.72;;;6.90;100.00
71764;BME280;59602;52.142;5.408;2024-03-17T04:41:25;102246.81;;;6.90;100.00
71764;BME280;59602;52.142;5.408;2024-03-17T04:43:52;102249.06;;;6.88;100.00
71764;BME280;59602;52.142;5.408;2024-03-17T04:46:18;102252.84;;;6.87;100.00
71764;BME280;59602;52.142;5.408;2024-03-17T04:48:44;102243.94;;;6.86;100.00
71764;BME280;59602;52.142;5.408;2024-03-17T04:51:15;102244.75;;;6.87;100.00
71764;BME280;59602;52.142;5.408;2024-03-17T04:53:41;102246.97;;;6.85;100.00
71764;BME280;59602;52.142;5.408;2024-03-17T04:56:07;102243.16;;;6.86;100.00
71764;BME280;59602;52.142;5.408;2024-03-17T04:58:34;102253.03;;;6.91;100.00
71764;BME280;59602;52.142;5.408;2024-03-17T05:01:05;102259.69;;;6.93;100.00
71764;BME280;59602;52.142;5.408;2024-03-17T05:03:32;102257.47;;;6.95;100.00
71764;BME280;59602;52.142;5.408;2024-03-17T05:06:02;102261.75;;;6.96;100.00
71764;BME280;59602;52.142;5.408;2024-03-17T05:08:29;102259.53;;;6.98;100.00
71764;BME280;59602;52.142;5.408;2024-03-17T05:11:00;102254.13;;;6.98;100.00
71764;BME280;59602;52.142;5.408;2024-03-17T05:13:27;102253.31;;;6.98;100.00
71764;BME280;59602;52.142;5.408;2024-03-17T05:15:53;102249.53;;;6.99;100.00
71764;BME280;59602;52.142;5.408;2024-03-17T05:18:19;102249.19;;;7.00;100.00
71764;BME280;59602;52.142;5.408;2024-03-17T05:20:46;102248.88;;;7.02;100.00
71764;BME280;59602;52.142;5.408;2024-03-17T05:23:13;102245.03;;;7.03;100.00
71764;BME280;59602;52.142;5.408;2024-03-17T05:25:39;102245.03;;;7.03;100.00
71764;BME280;59602;52.142;5.408;2024-03-17T05:28:05;102245.53;;;7.05;100.00
71764;BME280;59602;52.142;5.408;2024-03-17T05:30:31;102242.81;;;7.05;100.00
71764;BME280;59602;52.142;5.408;2024-03-17T05:32:57;102246.66;;;7.04;100.00
71764;BME280;59602;52.142;5.408;2024-03-17T05:35:22;102248.22;;;7.05;100.00
71764;BME280;59602;52.142;5.408;2024-03-17T05:37:50;102247.44;;;7.04;100.00
71764;BME280;59602;52.142;5.408;2024-03-17T05:40:16;102243.16;;;7.03;100.00
71764;BME280;59602;52.142;5.408;2024-03-17T05:42:41;102240.44;;;7.03;100.00
71764;BME280;59602;52.142;5.408;2024-03-17T05:45:09;102237.75;;;7.03;100.00
71764;BME280;59602;52.142;5.408;2024-03-17T05:47:38;102235.53;;;7.05;100.00
71764;BME280;59602;52.142;5.408;2024-03-17T05:50:04;102232.00;;;7.05;100.00
71764;BME280;59602;52.142;5.408;2024-03-17T05:52:30;102237.41;;;7.05;100.00
71764;BME280;59602;52.142;5.408;2024-03-17T05:54:56;102237.88;;;7.07;100.00
71764;BME280;59602;52.142;5.408;2024-03-17T05:57:22;102239.50;;;7.08;100.00
71764;BME280;59602;52.142;5.408;2024-03-17T05:59:49;102243.47;;;7.11;100.00
71764;BME280;59602;52.142;5.408;2024-03-17T06:02:15;102241.84;;;7.10;100.00
71764;BME280;59602;52.142;5.408;2024-03-17T06:04:41;102252.66;;;7.10;100.00
71764;BME280;59602;52.142;5.408;2024-03-17T06:07:08;102253.50;;;7.10;100.00
71764;BME280;59602;52.142;5.408;2024-03-17T06:09:34;102250.44;;;7.12;100.00
71764;BME280;59602;52.142;5.408;2024-03-17T06:12:00;102242.31;;;7.12;100.00
71764;BME280;59602;52.142;5.408;2024-03-17T06:14:28;102243.13;;;7.12;100.00
71764;BME280;59602;52.142;5.408;2024-03-17T06:16:54;102242.03;;;7.13;100.00
71764;BME280;59602;52.142;5.408;2024-03-17T06:19:20;102242.50;;;7.15;100.00
71764;BME280;59602;52.142;5.408;2024-03-17T06:21:46;102247.59;;;7.17;100.00
71764;BME280;59602;52.142;5.408;2024-03-17T06:24:12;102242.97;;;7.17;100.00
71764;BME280;59602;52.142;5.408;2024-03-17T06:26:40;102236.44;;;7.18;100.00
71764;BME280;59602;52.142;5.408;2024-03-17T06:29:05;102233.56;;;7.23;100.00
71764;BME280;59602;52.142;5.408;2024-03-17T06:31:31;102235.63;;;7.26;100.00
71764;BME280;59602;52.142;5.408;2024-03-17T06:33:57;102242.47;;;7.33;100.00
71764;BME280;59602;52.142;5.408;2024-03-17T06:36:23;102238.78;;;7.37;100.00
71764;BME280;59602;52.142;5.408;2024-03-17T06:38:52;102239.75;;;7.41;100.00
71764;BME280;59602;52.142;5.408;2024-03-17T06:41:53;102233.00;;;7.47;100.00
71764;BME280;59602;52.142;5.408;2024-03-17T06:45:00;102230.00;;;7.49;100.00
71764;BME280;59602;52.142;5.408;2024-03-17T06:48:01;102225.66;;;7.57;100.00
71764;BME280;59602;52.142;5.408;2024-03-17T06:50:26;102234.88;;;7.64;100.00
71764;BME280;59602;52.142;5.408;2024-03-17T06:52:54;102240.28;;;7.64;100.00
71764;BME280;59602;52.142;5.408;2024-03-17T07:02:37;102249.28;;;7.86;100.00
71764;BME280;59602;52.142;5.408;2024-03-17T07:05:28;102244.78;;;7.90;100.00
71764;BME280;59602;52.142;5.408;2024-03-17T07:11:56;102232.13;;;8.03;100.00
71764;BME280;59602;52.142;5.408;2024-03-17T07:15:05;102238.97;;;8.09;100.00
71764;BME280;59602;52.142;5.408;2024-03-17T07:18:15;102244.19;;;8.14;100.00
71764;BME280;59602;52.142;5.408;2024-03-17T07:24:48;102247.47;;;8.28;100.00
71764;BME280;59602;52.142;5.408;2024-03-17T07:27:36;102243.09;;;8.36;100.00
71764;BME280;59602;52.142;5.408;2024-03-17T07:34:03;102249.00;;;8.59;98.48
71764;BME280;59602;52.142;5.408;2024-03-17T07:39:52;102238.81;;;8.77;97.87
71764;BME280;59602;52.142;5.408;2024-03-17T07:45:22;102242.72;;;8.88;96.35
71764;BME280;59602;52.142;5.408;2024-03-17T07:51:08;102240.19;;;9.04;96.97
71764;BME280;59602;52.142;5.408;2024-03-17T07:58:06;102225.00;;;9.24;94.77
71764;BME280;59602;52.142;5.408;2024-03-17T08:01:04;102214.69;;;9.30;93.74
71764;BME280;59602;52.142;5.408;2024-03-17T08:08:51;102232.72;;;9.47;93.84
71764;BME280;59602;52.142;5.408;2024-03-17T08:16:02;102232.72;;;9.59;94.41
71764;BME280;59602;52.142;5.408;2024-03-17T08:19:52;102232.84;;;9.63;94.05
71764;BME280;59602;52.142;5.408;2024-03-17T08:22:53;102232.94;;;9.66;94.09
71764;BME280;59602;52.142;5.408;2024-03-17T08:25:57;102232.16;;;9.66;92.75
71764;BME280;59602;52.142;5.408;2024-03-17T08:28:26;102224.16;;;9.69;94.17
71764;BME280;59602;52.142;5.408;2024-03-17T08:31:12;102220.28;;;9.70;93.34
71764;BME280;59602;52.142;5.408;2024-03-17T08:33:54;102225.06;;;9.73;93.91
71764;BME280;59602;52.142;5.408;2024-03-17T08:37:00;102223.44;;;9.72;93.26
71764;BME280;59602;52.142;5.408;2024-03-17T08:39:26;102221.19;;;9.74;92.80
71764;BME280;59602;52.142;5.408;2024-03-17T08:42:37;102225.06;;;9.73;91.41
71764;BME280;59602;52.142;5.408;2024-03-17T08:45:19;102218.16;;;9.76;91.86
71764;BME280;59602;52.142;5.408;2024-03-17T08:47:45;102217.47;;;9.79;92.56
71764;BME280;59602;52.142;5.408;2024-03-17T08:50:14;102214.19;;;9.86;92.12
71764;BME280;59602;52.142;5.408;2024-03-17T08:53:04;102207.38;;;9.92;92.09
71764;BME280;59602;52.142;5.408;2024-03-17T08:55:29;102211.81;;;9.96;90.86
71764;BME280;59602;52.142;5.408;2024-03-17T08:57:54;102210.06;;;10.04;92.01
71764;BME280;59602;52.142;5.408;2024-03-17T09:00:26;102213.38;;;10.10;92.01
71764;BME280;59602;52.142;5.408;2024-03-17T09:03:35;102221.28;;;10.15;92.04
71764;BME280;59602;52.142;5.408;2024-03-17T09:06:37;102203.28;;;10.23;90.05
71764;BME280;59602;52.142;5.408;2024-03-17T09:13:24;102213.88;;;10.52;89.30
71764;BME280;59602;52.142;5.408;2024-03-17T09:16:25;102209.06;;;10.62;89.73
71764;BME280;59602;52.142;5.408;2024-03-17T09:22:44;102209.19;;;10.65;88.51
71764;BME280;59602;52.142;5.408;2024-03-17T09:25:12;102209.25;;;10.69;89.45
71764;BME280;59602;52.142;5.408;2024-03-17T09:27:40;102204.97;;;10.68;88.67
71764;BME280;59602;52.142;5.408;2024-03-17T09:30:07;102206.91;;;10.67;88.34
71764;BME280;59602;52.142;5.408;2024-03-17T09:32:36;102213.47;;;10.66;86.40
71764;BME280;59602;52.142;5.408;2024-03-17T09:35:04;102210.41;;;10.68;88.96
71764;BME280;59602;52.142;5.408;2024-03-17T09:37:30;102215.59;;;10.73;88.83
71764;BME280;59602;52.142;5.408;2024-03-17T09:39:57;102207.19;;;10.78;88.87
71764;BME280;59602;52.142;5.408;2024-03-17T09:42:26;102203.09;;;10.84;89.68
71764;BME280;59602;52.142;5.408;2024-03-17T10:32:26;102175.47;;;11.93;84.45
71764;BME280;59602;52.142;5.408;2024-03-17T10:34:53;102175.25;;;12.02;83.28
71764;BME280;59602;52.142;5.408;2024-03-17T10:37:20;102172.03;;;12.16;83.78
71764;BME280;59602;52.142;5.408;2024-03-17T10:39:53;102169.19;;;12.28;83.23
71764;BME280;59602;52.142;5.408;2024-03-17T10:42:26;102164.75;;;12.39;82.40
71764;BME280;59602;52.142;5.408;2024-03-17T10:44:54;102168.47;;;12.51;82.88
71764;BME280;59602;52.142;5.408;2024-03-17T10:47:23;102167.81;;;12.57;82.08
71764;BME280;59602;52.142;5.408;2024-03-17T10:49:52;102160.19;;;12.66;80.45
71764;BME280;59602;52.142;5.408;2024-03-17T10:52:19;102154.78;;;12.70;80.16
71764;BME280;59602;52.142;5.408;2024-03-17T10:54:48;102161.50;;;12.73;79.77
71764;BME280;59602;52.142;5.408;2024-03-17T10:57:27;102160.75;;;12.76;79.03
71764;BME280;59602;52.142;5.408;2024-03-17T10:59:57;102163.91;;;12.78;79.75
71764;BME280;59602;52.142;5.408;2024-03-17T11:02:28;102149.63;;;12.84;79.74
71764;BME280;59602;52.142;5.408;2024-03-17T11:05:14;102148.88;;;12.87;80.45
71764;BME280;59602;52.142;5.408;2024-03-17T11:07:43;102146.28;;;12.95;79.69
71764;BME280;59602;52.142;5.408;2024-03-17T11:10:20;102141.44;;;13.07;80.62
71764;BME280;59602;52.142;5.408;2024-03-17T11:12:55;102141.97;;;13.17;79.03
71764;BME280;59602;52.142;5.408;2024-03-17T11:17:52;102144.44;;;13.25;79.84
71764;BME280;59602;52.142;5.408;2024-03-17T11:20:26;102132.53;;;13.34;80.21
71764;BME280;59602;52.142;5.408;2024-03-17T11:22:58;102136.53;;;13.40;80.02
71764;BME280;59602;52.142;5.408;2024-03-17T11:27:53;102134.16;;;13.38;77.38
71764;BME280;59602;52.142;5.408;2024-03-17T11:38:56;102130.44;;;13.27;78.18
71764;BME280;59602;52.142;5.408;2024-03-17T11:49:28;102121.09;;;13.05;78.61
71764;BME280;59602;52.142;5.408;2024-03-17T11:51:57;102127.97;;;12.95;78.36
71764;BME280;59602;52.142;5.408;2024-03-17T11:54:28;102134.03;;;12.85;79.04
71764;BME280;59602;52.142;5.408;2024-03-17T11:56:56;102136.69;;;12.81;80.32
71764;BME280;59602;52.142;5.408;2024-03-17T11:59:25;102132.31;;;12.77;80.97
71764;BME280;59602;52.142;5.408;2024-03-17T12:01:52;102129.22;;;12.78;80.88
71764;BME280;59602;52.142;5.408;2024-03-17T12:04:20;102139.78;;;12.80;79.88
71764;BME280;59602;52.142;5.408;2024-03-17T12:06:51;102129.97;;;12.75;79.59
71764;BME280;59602;52.142;5.408;2024-03-17T12:11:50;102123.63;;;12.71;81.55
71764;BME280;59602;52.142;5.408;2024-03-17T12:14:19;102113.59;;;12.75;82.61
71764;BME280;59602;52.142;5.408;2024-03-17T12:16:50;102118.38;;;12.82;82.76
71764;BME280;59602;52.142;5.408;2024-03-17T12:19:17;102114.56;;;12.86;81.67
71764;BME280;59602;52.142;5.408;2024-03-17T12:21:45;102108.72;;;12.88;81.53
71764;BME280;59602;52.142;5.408;2024-03-17T12:24:15;102113.91;;;12.93;81.11
71764;BME280;59602;52.142;5.408;2024-03-17T12:26:42;102109.28;;;12.97;81.20
71764;BME280;59602;52.142;5.408;2024-03-17T12:29:36;102103.94;;;13.04;80.45
71764;BME280;59602;52.142;5.408;2024-03-17T12:32:05;102099.69;;;13.07;80.55
71764;BME280;59602;52.142;5.408;2024-03-17T12:34:33;102100.91;;;13.09;80.75
71764;BME280;59602;52.142;5.408;2024-03-17T12:37:00;102092.34;;;13.11;80.36
71764;BME280;59602;52.142;5.408;2024-03-17T12:39:29;102091.44;;;13.03;78.87
71764;BME280;59602;52.142;5.408;2024-03-17T12:42:08;102090.66;;;13.03;80.14
71764;BME280;59602;52.142;5.408;2024-03-17T12:44:40;102081.31;;;13.04;79.91
71764;BME280;59602;52.142;5.408;2024-03-17T12:47:17;102076.69;;;13.08;81.04
71764;BME280;59602;52.142;5.408;2024-03-17T12:49:48;102073.94;;;13.08;80.95
71764;BME280;59602;52.142;5.408;2024-03-17T12:52:20;102068.13;;;13.09;80.02
71764;BME280;59602;52.142;5.408;2024-03-17T12:55:04;102062.34;;;13.15;80.35
71764;BME280;59602;52.142;5.408;2024-03-17T12:57:50;102058.84;;;13.14;79.54
71764;BME280;59602;52.142;5.408;2024-03-17T13:00:36;102063.50;;;13.14;79.34
71764;BME280;59602;52.142;5.408;2024-03-17T13:03:04;102059.31;;;13.20;79.58
71764;BME280;59602;52.142;5.408;2024-03-17T13:05:31;102062.47;;;13.22;80.01
71764;BME280;59602;52.142;5.408;2024-03-17T13:08:01;102056.19;;;13.21;79.59
71764;BME280;59602;52.142;5.408;2024-03-17T13:10:28;102046.09;;;13.22;80.10
71764;BME280;59602;52.142;5.408;2024-03-17T13:13:01;102051.97;;;13.24;80.76
71764;BME280;59602;52.142;5.408;2024-03-17T13:15:27;102047.28;;;13.24;79.20
71764;BME280;59602;52.142;5.408;2024-03-17T13:17:57;102050.75;;;13.21;79.16
71764;BME280;59602;52.142;5.408;2024-03-17T13:20:23;102044.13;;;13.22;80.94
71764;BME280;59602;52.142;5.408;2024-03-17T13:22:49;102048.06;;;13.25;78.84
71764;BME280;59602;52.142;5.408;2024-03-17T13:25:18;102044.63;;;13.28;80.11
71764;BME280;59602;52.142;5.408;2024-03-17T13:27:45;102037.69;;;13.34;80.18
71764;BME280;59602;52.142;5.408;2024-03-17T13:30:12;102036.16;;;13.37;79.87
71764;BME280;59602;52.142;5.408;2024-03-17T13:32:39;102036.94;;;13.37;79.83
71764;BME280;59602;52.142;5.408;2024-03-17T13:35:06;102032.31;;;13.41;80.65
71764;BME280;59602;52.142;5.408;2024-03-17T13:37:34;102028.88;;;13.44;81.24
71764;BME280;59602;52.142;5.408;2024-03-17T14:23:13;101969.06;;;13.69;80.13
71764;BME280;59602;52.142;5.408;2024-03-17T14:25:39;101970.69;;;13.74;80.40
71764;BME280;59602;52.142;5.408;2024-03-17T14:28:06;101958.97;;;13.74;78.92
71764;BME280;59602;52.142;5.408;2024-03-17T14:30:32;101955.44;;;13.73;79.24
71764;BME280;59602;52.142;5.408;2024-03-17T14:32:59;101953.44;;;13.70;78.57
71764;BME280;59602;52.142;5.408;2024-03-17T14:35:24;101953.06;;;13.72;79.74
71764;BME280;59602;52.142;5.408;2024-03-17T14:37:52;101958.19;;;13.77;79.44
71764;BME280;59602;52.142;5.408;2024-03-17T14:40:19;101947.69;;;13.79;80.00
71764;BME280;59602;52.142;5.408;2024-03-17T14:42:50;101948.16;;;13.88;80.72
71764;BME280;59602;52.142;5.408;2024-03-17T14:45:17;101949.41;;;13.94;79.00
71764;BME280;59602;52.142;5.408;2024-03-17T14:47:45;101943.94;;;13.94;77.54
71764;BME280;59602;52.142;5.408;2024-03-17T14:50:20;101945.13;;;13.97;78.49
71764;BME280;59602;52.142;5.408;2024-03-17T14:52:47;101934.59;;;13.99;79.42
71764;BME280;59602;52.142;5.408;2024-03-17T17:14:08;101847.88;;;12.60;95.75
71764;BME280;59602;52.142;5.408;2024-03-17T17:20:27;101837.63;;;12.54;97.55
71764;BME280;59602;52.142;5.408;2024-03-17T17:30:18;101843.72;;;12.43;97.12
71764;BME280;59602;52.142;5.408;2024-03-17T17:33:24;101837.88;;;12.41;99.31
71764;BME280;59602;52.142;5.408;2024-03-17T17:39:11;101844.78;;;12.35;100.00
71764;BME280;59602;52.142;5.408;2024-03-17T21:22:14;101744.41;;;11.02;100.00
